sensor_id;sensor_type;location;lat;lon;timestamp;pressure;altitude;pressure_sealevel;temperature;humidity
47726;BME280;33483;48.294;16.388;2023-02-17T00:00:33;100490.31;;;-0.64;100.00
47726;BME280;33483;48.294;16.388;2023-02-17T00:03:19;100479.50;;;-0.67;100.00
47726;BME280;33483;48.294;16.388;2023-02-17T00:05:46;100478.81;;;-0.71;100.00
47726;BME280;33483;48.294;16.388;2023-02-17T00:08:16;100489.78;;;-0.75;100.00
47726;BME280;33483;48.294;16.388;2023-02-17T00:10:44;100482.16;;;-0.80;100.00
47726;BME280;33483;48.294;16.388;2023-02-17T00:13:11;100484.63;;;-0.85;100.00
47726;BME280;33483;48.294;16.388;2023-02-17T00:15:38;100474.25;;;-0.90;100.00
47726;BME280;33483;48.294;16.388;2023-02-17T00:18:05;100484.56;;;-0.98;100.00
47726;BME280;33483;48.294;16.388;2023-02-17T00:20:32;100480.81;;;-1.04;100.00
47726;BME280;33483;48.294;16.388;2023-02-17T00:22:59;100476.75;;;-1.12;100.00
47726;BME280;33483;48.294;16.388;2023-02-17T00:25:27;100474.53;;;-1.17;100.00
47726;BME280;33483;48.294;16.388;2023-02-17T00:27:53;100480.50;;;-1.22;100.00
47726;BME280;33483;48.294;16.388;2023-02-17T00:30:21;100477.88;;;-1.26;100.00
47726;BME280;33483;48.294;16.388;2023-02-17T00:32:48;100468.25;;;-1.30;100.00
47726;BME280;33483;48.294;16.388;2023-02-17T00:35:15;100472.44;;;-1.26;100.00
47726;BME280;33483;48.294;16.388;2023-02-17T00:37:42;100476.22;;;-1.23;100.00
47726;BME280;33483;48.294;16.388;2023-02-17T00:40:12;100475.72;;;-1.18;100.00
47726;BME280;33483;48.294;16.388;2023-02-17T00:42:41;100468.75;;;-1.19;100.00
47726;BME280;33483;48.294;16.388;2023-02-17T00:45:09;100458.63;;;-1.19;100.00
47726;BME280;33483;48.294;16.388;2023-02-17T00:47:35;100465.19;;;-1.16;100.00
47726;BME280;33483;48.294;16.388;2023-02-17T00:50:03;100459.31;;;-1.15;100.00
47726;BME280;33483;48.294;16.388;2023-02-17T00:52:30;100462.72;;;-1.10;100.00
47726;BME280;33483;48.294;16.388;2023-02-17T00:54:57;100455.25;;;-1.06;100.00
47726;BME280;33483;48.294;16.388;2023-02-17T00:57:24;100456.69;;;-1.02;100.00
47726;BME280;33483;48.294;16.388;2023-02-17T00:59:52;100460.44;;;-0.96;100.00
47726;BME280;33483;48.294;16.388;2023-02-17T01:02:22;100452.06;;;-0.89;100.00
47726;BME280;33483;48.294;16.388;2023-02-17T01:04:52;100437.63;;;-0.86;100.00
47726;BME280;33483;48.294;16.388;2023-02-17T01:07:19;100445.59;;;-0.79;100.00
47726;BME280;33483;48.294;16.388;2023-02-17T01:09:49;100452.03;;;-0.73;100.00
47726;BME280;33483;48.294;16.388;2023-02-17T01:12:15;100435.94;;;-0.67;100.00
47726;BME280;33483;48.294;16.388;2023-02-17T01:14:43;100441.22;;;-0.60;100.00
47726;BME280;33483;48.294;16.388;2023-02-17T01:17:10;100434.81;;;-0.54;100.00
47726;BME280;33483;48.294;16.388;2023-02-17T01:19:37;100427.31;;;-0.50;100.00
47726;BME280;33483;48.294;16.388;2023-02-17T01:22:04;100429.50;;;-0.45;100.00
47726;BME280;33483;48.294;16.388;2023-02-17T01:24:33;100429.84;;;-0.43;100.00
47726;BME280;33483;48.294;16.388;2023-02-17T01:27:01;100432.47;;;-0.39;100.00
47726;BME280;33483;48.294;16.388;2023-02-17T01:29:28;100421.56;;;-0.39;100.00
47726;BME280;33483;48.294;16.388;2023-02-17T01:31:58;100424.38;;;-0.43;100.00
47726;BME280;33483;48.294;16.388;2023-02-17T01:34:26;100424.06;;;-0.45;100.00
47726;BME280;33483;48.294;16.388;2023-02-17T01:36:55;100420.56;;;-0.45;100.00
47726;BME280;33483;48.294;16.388;2023-02-17T01:39:22;100416.41;;;-0.50;100.00
47726;BME280;33483;48.294;16.388;2023-02-17T01:41:49;100423.06;;;-0.51;100.00
47726;BME280;33483;48.294;16.388;2023-02-17T01:44:20;100421.53;;;-0.52;100.00
47726;BME280;33483;48.294;16.388;2023-02-17T01:46:50;100422.63;;;-0.49;100.00
47726;BME280;33483;48.294;16.388;2023-02-17T01:54:33;100419.28;;;-0.41;100.00
47726;BME280;33483;48.294;16.388;2023-02-17T01:57:01;100415.25;;;-0.36;100.00
47726;BME280;33483;48.294;16.388;2023-02-17T01:59:29;100420.25;;;-0.35;100.00
47726;BME280;33483;48.294;16.388;2023-02-17T02:01:59;100424.88;;;-0.32;100.00
47726;BME280;33483;48.294;16.388;2023-02-17T02:04:30;100423.66;;;-0.31;100.00
47726;BME280;33483;48.294;16.388;2023-02-17T02:06:58;100423.66;;;-0.31;100.00
47726;BME280;33483;48.294;16.388;2023-02-17T02:09:30;100420.16;;;-0.31;100.00
47726;BME280;33483;48.294;16.388;2023-02-17T02:11:58;100422.88;;;-0.31;100.00
47726;BME280;33483;48.294;16.388;2023-02-17T02:14:30;100410.72;;;-0.27;100.00
47726;BME280;33483;48.294;16.388;2023-02-17T02:34:56;100370.84;;;-0.21;100.00
47726;BME280;33483;48.294;16.388;2023-02-17T02:37:28;100375.44;;;-0.18;100.00
47726;BME280;33483;48.294;16.388;2023-02-17T02:39:59;100363.34;;;-0.17;100.00
47726;BME280;33483;48.294;16.388;2023-02-17T02:42:29;100371.59;;;-0.20;100.00
47726;BME280;33483;48.294;16.388;2023-02-17T02:44:57;100369.31;;;-0.22;100.00
47726;BME280;33483;48.294;16.388;2023-02-17T02:50:16;100366.59;;;-0.22;100.00
47726;BME280;33483;48.294;16.388;2023-02-17T02:58:08;100375.00;;;-0.16;100.00
47726;BME280;33483;48.294;16.388;2023-02-17T03:00:45;100366.38;;;-0.15;100.00
47726;BME280;33483;48.294;16.388;2023-02-17T03:03:20;100377.28;;;-0.15;100.00
47726;BME280;33483;48.294;16.388;2023-02-17T03:05:54;100373.69;;;-0.12;100.00
47726;BME280;33483;48.294;16.388;2023-02-17T03:11:08;100367.91;;;-0.01;100.00
47726;BME280;33483;48.294;16.388;2023-02-17T03:13:36;100370.88;;;0.05;100.00
47726;BME280;33483;48.294;16.388;2023-02-17T03:16:09;100374.38;;;0.05;100.00
47726;BME280;33483;48.294;16.388;2023-02-17T03:18:40;100369.53;;;0.09;100.00
47726;BME280;33483;48.294;16.388;2023-02-17T03:21:13;100375.22;;;0.15;100.00
47726;BME280;33483;48.294;16.388;2023-02-17T03:23:42;100377.94;;;0.15;100.00
47726;BME280;33483;48.294;16.388;2023-02-17T03:26:09;100375.66;;;0.13;100.00
47726;BME280;33483;48.294;16.388;2023-02-17T03:28:36;100380.78;;;0.24;100.00
47726;BME280;33483;48.294;16.388;2023-02-17T03:31:03;100373.16;;;0.31;100.00
47726;BME280;33483;48.294;16.388;2023-02-17T03:33:30;100382.19;;;0.41;100.00
47726;BME280;33483;48.294;16.388;2023-02-17T03:35:57;100371.94;;;0.45;100.00
47726;BME280;33483;48.294;16.388;2023-02-17T03:38:24;100376.38;;;0.51;100.00
47726;BME280;33483;48.294;16.388;2023-02-17T03:40:51;100369.19;;;0.57;100.00
47726;BME280;33483;48.294;16.388;2023-02-17T03:43:19;100371.25;;;0.66;100.00
47726;BME280;33483;48.294;16.388;2023-02-17T03:45:46;100369.78;;;0.74;100.00
47726;BME280;33483;48.294;16.388;2023-02-17T03:48:13;100368.91;;;0.77;100.00
47726;BME280;33483;48.294;16.388;2023-02-17T03:50:43;100376.13;;;0.83;100.00
47726;BME280;33483;48.294;16.388;2023-02-17T03:53:10;100374.13;;;0.84;100.00
47726;BME280;33483;48.294;16.388;2023-02-17T03:55:37;100379.06;;;0.89;100.00
47726;BME280;33483;48.294;16.388;2023-02-17T03:58:04;100377.50;;;0.88;100.00
47726;BME280;33483;48.294;16.388;2023-02-17T04:00:32;100379.91;;;0.86;100.00
47726;BME280;33483;48.294;16.388;2023-02-17T04:02:58;100371.59;;;0.89;100.00
47726;BME280;33483;48.294;16.388;2023-02-17T04:05:26;100383.38;;;0.99;100.00
47726;BME280;33483;48.294;16.388;2023-02-17T04:07:53;100372.09;;;1.09;100.00
47726;BME280;33483;48.294;16.388;2023-02-17T04:10:20;100382.00;;;1.16;100.00
47726;BME280;33483;48.294;16.388;2023-02-17T04:12:47;100364.16;;;1.24;100.00
47726;BME280;33483;48.294;16.388;2023-02-17T04:15:16;100372.09;;;1.31;100.00
47726;BME280;33483;48.294;16.388;2023-02-17T04:17:43;100368.97;;;1.42;100.00
47726;BME280;33483;48.294;16.388;2023-02-17T04:20:11;100363.06;;;1.43;100.00
47726;BME280;33483;48.294;16.388;2023-02-17T04:22:38;100376.19;;;1.48;100.00
47726;BME280;33483;48.294;16.388;2023-02-17T04:25:05;100366.63;;;1.53;100.00
47726;BME280;33483;48.294;16.388;2023-02-17T04:27:32;100366.81;;;1.58;100.00
47726;BME280;33483;48.294;16.388;2023-02-17T04:29:59;100373.81;;;1.59;100.00
47726;BME280;33483;48.294;16.388;2023-02-17T04:32:26;100372.63;;;1.60;100.00
47726;BME280;33483;48.294;16.388;2023-02-17T04:34:53;100375.63;;;1.62;100.00
47726;BME280;33483;48.294;16.388;2023-02-17T04:37:20;100363.66;;;1.60;100.00
47726;BME280;33483;48.294;16.388;2023-02-17T04:39:47;100366.25;;;1.63;100.00
47726;BME280;33483;48.294;16.388;2023-02-17T04:42:14;100369.31;;;1.65;100.00
47726;BME280;33483;48.294;16.388;2023-02-17T04:44:41;100364.28;;;1.64;100.00
47726;BME280;33483;48.294;16.388;2023-02-17T04:47:08;100359.88;;;1.66;100.00
47726;BME280;33483;48.294;16.388;2023-02-17T04:49:36;100362.28;;;1.64;100.00
47726;BME280;33483;48.294;16.388;2023-02-17T04:52:03;100365.34;;;1.66;100.00
47726;BME280;33483;48.294;16.388;2023-02-17T04:54:30;100356.25;;;1.69;100.00
47726;BME280;33483;48.294;16.388;2023-02-17T04:56:57;100366.31;;;1.72;100.00
47726;BME280;33483;48.294;16.388;2023-02-17T04:59:24;100362.34;;;1.73;100.00
47726;BME280;33483;48.294;16.388;2023-02-17T05:01:53;100359.34;;;1.80;100.00
47726;BME280;33483;48.294;16.388;2023-02-17T05:04:21;100357.84;;;1.79;100.00
47726;BME280;33483;48.294;16.388;2023-02-17T05:06:47;100352.97;;;1.83;100.00
47726;BME280;33483;48.294;16.388;2023-02-17T05:09:15;100355.25;;;1.85;100.00
47726;BME280;33483;48.294;16.388;2023-02-17T05:11:41;100348.59;;;1.86;100.00
47726;BME280;33483;48.294;16.388;2023-02-17T05:14:09;100349.53;;;1.92;100.00
47726;BME280;33483;48.294;16.388;2023-02-17T05:16:36;100336.63;;;1.92;100.00
47726;BME280;33483;48.294;16.388;2023-02-17T05:19:03;100336.78;;;1.89;100.00
47726;BME280;33483;48.294;16.388;2023-02-17T05:21:30;100329.66;;;1.91;100.00
47726;BME280;33483;48.294;16.388;2023-02-17T05:23:57;100329.34;;;1.89;100.00
47726;BME280;33483;48.294;16.388;2023-02-17T05:26:24;100321.47;;;1.91;100.00
47726;BME280;33483;48.294;16.388;2023-02-17T05:28:52;100313.41;;;1.88;100.00
47726;BME280;33483;48.294;16.388;2023-02-17T05:31:19;100305.03;;;1.82;100.00
47726;BME280;33483;48.294;16.388;2023-02-17T05:33:46;100305.75;;;1.74;100.00
47726;BME280;33483;48.294;16.388;2023-02-17T05:36:13;100298.59;;;1.67;100.00
47726;BME280;33483;48.294;16.388;2023-02-17T05:38:41;100312.66;;;1.57;100.00
47726;BME280;33483;48.294;16.388;2023-02-17T05:41:08;100311.69;;;1.51;100.00
47726;BME280;33483;48.294;16.388;2023-02-17T05:43:35;100312.09;;;1.40;100.00
47726;BME280;33483;48.294;16.388;2023-02-17T05:46:02;100317.22;;;1.38;100.00
47726;BME280;33483;48.294;16.388;2023-02-17T05:48:30;100313.44;;;1.36;100.00
47726;BME280;33483;48.294;16.388;2023-02-17T05:50:57;100304.03;;;1.37;100.00
47726;BME280;33483;48.294;16.388;2023-02-17T05:53:25;100298.44;;;1.40;100.00
47726;BME280;33483;48.294;16.388;2023-02-17T05:55:52;100304.84;;;1.46;100.00
47726;BME280;33483;48.294;16.388;2023-02-17T05:58:19;100307.44;;;1.50;100.00
47726;BME280;33483;48.294;16.388;2023-02-17T06:00:46;100307.66;;;1.64;100.00
47726;BME280;33483;48.294;16.388;2023-02-17T06:03:14;100308.16;;;1.72;100.00
47726;BME280;33483;48.294;16.388;2023-02-17T06:05:43;100311.06;;;1.77;100.00
47726;BME280;33483;48.294;16.388;2023-02-17T06:08:11;100311.72;;;1.81;100.00
47726;BME280;33483;48.294;16.388;2023-02-17T06:10:38;100306.72;;;1.89;100.00
47726;BME280;33483;48.294;16.388;2023-02-17T06:13:05;100313.44;;;1.97;100.00
47726;BME280;33483;48.294;16.388;2023-02-17T06:15:32;100312.06;;;2.01;100.00
47726;BME280;33483;48.294;16.388;2023-02-17T06:17:59;100313.75;;;2.08;100.00
47726;BME280;33483;48.294;16.388;2023-02-17T06:20:27;100316.81;;;2.10;100.00
47726;BME280;33483;48.294;16.388;2023-02-17T06:22:56;100313.34;;;2.18;100.00
47726;BME280;33483;48.294;16.388;2023-02-17T06:25:23;100312.00;;;2.32;100.00
47726;BME280;33483;48.294;16.388;2023-02-17T06:27:52;100310.97;;;2.48;100.00
47726;BME280;33483;48.294;16.388;2023-02-17T06:30:19;100309.19;;;2.72;100.00
47726;BME280;33483;48.294;16.388;2023-02-17T06:32:47;100306.13;;;3.06;100.00
47726;BME280;33483;48.294;16.388;2023-02-17T06:35:14;100306.88;;;3.84;100.00
47726;BME280;33483;48.294;16.388;2023-02-17T06:37:41;100308.44;;;4.80;100.00
47726;BME280;33483;48.294;16.388;2023-02-17T06:40:08;100313.50;;;5.63;100.00
47726;BME280;33483;48.294;16.388;2023-02-17T06:42:36;100325.66;;;6.55;100.00
47726;BME280;33483;48.294;16.388;2023-02-17T06:45:03;100326.88;;;6.94;100.00
47726;BME280;33483;48.294;16.388;2023-02-17T06:47:32;100322.44;;;7.48;100.00
47726;BME280;33483;48.294;16.388;2023-02-17T06:50:02;100330.44;;;7.71;100.00
47726;BME280;33483;48.294;16.388;2023-02-17T06:52:29;100333.56;;;8.21;100.00
47726;BME280;33483;48.294;16.388;2023-02-17T06:54:57;100330.56;;;8.56;100.00
47726;BME280;33483;48.294;16.388;2023-02-17T06:57:26;100328.41;;;8.87;100.00
47726;BME280;33483;48.294;16.388;2023-02-17T06:59:54;100320.66;;;8.91;100.00
47726;BME280;33483;48.294;16.388;2023-02-17T07:02:23;100319.66;;;9.00;100.00
47726;BME280;33483;48.294;16.388;2023-02-17T07:04:50;100325.25;;;9.11;100.00
47726;BME280;33483;48.294;16.388;2023-02-17T07:07:18;100331.31;;;9.32;96.12
47726;BME280;33483;48.294;16.388;2023-02-17T07:09:44;100331.59;;;9.56;92.71
47726;BME280;33483;48.294;16.388;2023-02-17T07:12:12;100327.88;;;9.92;88.67
47726;BME280;33483;48.294;16.388;2023-02-17T07:14:39;100328.88;;;10.16;85.92
47726;BME280;33483;48.294;16.388;2023-02-17T07:17:06;100325.66;;;10.86;82.44
47726;BME280;33483;48.294;16.388;2023-02-17T07:19:33;100323.47;;;12.50;66.82
47726;BME280;33483;48.294;16.388;2023-02-17T07:22:00;100329.75;;;13.54;63.32
47726;BME280;33483;48.294;16.388;2023-02-17T07:24:28;100322.41;;;14.59;50.70
47726;BME280;33483;48.294;16.388;2023-02-17T07:26:55;100337.13;;;15.66;45.21
47726;BME280;33483;48.294;16.388;2023-02-17T07:29:22;100338.63;;;16.29;43.95
47726;BME280;33483;48.294;16.388;2023-02-17T07:31:50;100342.03;;;15.52;46.00
47726;BME280;33483;48.294;16.388;2023-02-17T07:34:17;100338.59;;;14.60;45.93
47726;BME280;33483;48.294;16.388;2023-02-17T07:36:44;100343.81;;;13.93;47.14
47726;BME280;33483;48.294;16.388;2023-02-17T07:39:11;100334.72;;;13.42;49.22
47726;BME280;33483;48.294;16.388;2023-02-17T07:41:41;100325.47;;;12.73;50.86
47726;BME280;33483;48.294;16.388;2023-02-17T07:44:08;100329.66;;;12.37;51.31
47726;BME280;33483;48.294;16.388;2023-02-17T07:46:39;100337.09;;;12.29;52.31
47726;BME280;33483;48.294;16.388;2023-02-17T07:49:08;100337.66;;;12.22;52.76
47726;BME280;33483;48.294;16.388;2023-02-17T07:51:36;100325.44;;;12.06;53.00
47726;BME280;33483;48.294;16.388;2023-02-17T07:54:03;100326.06;;;12.18;53.65
47726;BME280;33483;48.294;16.388;2023-02-17T07:56:30;100328.13;;;12.12;52.89
47726;BME280;33483;48.294;16.388;2023-02-17T07:58:59;100325.63;;;12.08;53.37
47726;BME280;33483;48.294;16.388;2023-02-17T08:01:26;100323.72;;;11.98;52.67
47726;BME280;33483;48.294;16.388;2023-02-17T08:03:54;100329.25;;;11.98;52.67
47726;BME280;33483;48.294;16.388;2023-02-17T08:06:22;100326.78;;;11.94;53.36
47726;BME280;33483;48.294;16.388;2023-02-17T08:08:52;100331.09;;;11.90;53.60
47726;BME280;33483;48.294;16.388;2023-02-17T08:11:39;100331.09;;;11.90;53.65
47726;BME280;33483;48.294;16.388;2023-02-17T08:14:26;100321.66;;;11.74;53.80
47726;BME280;33483;48.294;16.388;2023-02-17T08:16:54;100330.22;;;11.76;53.69
47726;BME280;33483;48.294;16.388;2023-02-17T08:19:21;100336.00;;;11.78;54.66
47726;BME280;33483;48.294;16.388;2023-02-17T08:21:48;100317.09;;;11.77;56.09
47726;BME280;33483;48.294;16.388;2023-02-17T08:24:15;100322.97;;;11.68;56.98
47726;BME280;33483;48.294;16.388;2023-02-17T08:26:45;100325.47;;;11.71;58.49
47726;BME280;33483;48.294;16.388;2023-02-17T08:29:12;100325.19;;;11.75;60.86
47726;BME280;33483;48.294;16.388;2023-02-17T08:31:40;100317.09;;;11.77;62.86
47726;BME280;33483;48.294;16.388;2023-02-17T08:34:08;100320.59;;;11.77;66.81
47726;BME280;33483;48.294;16.388;2023-02-17T08:36:35;100308.69;;;11.82;69.59
47726;BME280;33483;48.294;16.388;2023-02-17T08:39:09;100307.72;;;11.80;70.38
47726;BME280;33483;48.294;16.388;2023-02-17T08:41:37;100293.50;;;11.89;72.70
47726;BME280;33483;48.294;16.388;2023-02-17T08:44:08;100298.88;;;11.81;73.83
47726;BME280;33483;48.294;16.388;2023-02-17T08:46:36;100308.25;;;11.78;79.75
47726;BME280;33483;48.294;16.388;2023-02-17T08:49:04;100297.53;;;11.53;91.46
47726;BME280;33483;48.294;16.388;2023-02-17T08:51:34;100301.50;;;11.27;100.00
47726;BME280;33483;48.294;16.388;2023-02-17T08:54:02;100302.66;;;11.02;100.00
47726;BME280;33483;48.294;16.388;2023-02-17T08:56:30;100293.94;;;10.82;100.00
47726;BME280;33483;48.294;16.388;2023-02-17T08:59:00;100310.81;;;10.78;100.00
47726;BME280;33483;48.294;16.388;2023-02-17T09:01:27;100294.25;;;10.62;100.00
47726;BME280;33483;48.294;16.388;2023-02-17T09:03:55;100301.56;;;10.59;100.00
47726;BME280;33483;48.294;16.388;2023-02-17T09:06:23;100309.91;;;10.54;100.00
47726;BME280;33483;48.294;16.388;2023-02-17T09:08:50;100295.84;;;10.35;100.00
47726;BME280;33483;48.294;16.388;2023-02-17T09:11:17;100300.13;;;10.31;100.00
47726;BME280;33483;48.294;16.388;2023-02-17T09:13:49;100287.81;;;10.26;100.00
47726;BME280;33483;48.294;16.388;2023-02-17T09:16:16;100281.28;;;10.18;100.00
47726;BME280;33483;48.294;16.388;2023-02-17T09:18:46;100287.84;;;9.98;100.00
47726;BME280;33483;48.294;16.388;2023-02-17T09:21:13;100287.34;;;9.89;100.00
47726;BME280;33483;48.294;16.388;2023-02-17T09:23:43;100280.53;;;9.73;100.00
47726;BME280;33483;48.294;16.388;2023-02-17T09:26:11;100282.56;;;9.67;100.00
47726;BME280;33483;48.294;16.388;2023-02-17T09:28:38;100275.00;;;9.68;100.00
47726;BME280;33483;48.294;16.388;2023-02-17T09:33:39;100273.50;;;9.78;100.00
47726;BME280;33483;48.294;16.388;2023-02-17T09:36:08;100276.03;;;9.81;100.00
47726;BME280;33483;48.294;16.388;2023-02-17T09:38:39;100276.25;;;9.83;100.00
47726;BME280;33483;48.294;16.388;2023-02-17T09:43:41;100268.97;;;9.80;100.00
47726;BME280;33483;48.294;16.388;2023-02-17T09:46:10;100276.03;;;9.70;100.00
47726;BME280;33483;48.294;16.388;2023-02-17T09:48:38;100265.72;;;9.71;100.00
47726;BME280;33483;48.294;16.388;2023-02-17T09:51:12;100272.25;;;9.68;100.00
47726;BME280;33483;48.294;16.388;2023-02-17T09:53:43;100263.44;;;9.53;100.00
47726;BME280;33483;48.294;16.388;2023-02-17T09:56:15;100259.91;;;9.52;100.00
47726;BME280;33483;48.294;16.388;2023-02-17T09:58:46;100257.66;;;9.56;100.00
47726;BME280;33483;48.294;16.388;2023-02-17T10:01:15;100263.19;;;9.73;100.00
47726;BME280;33483;48.294;16.388;2023-02-17T10:03:45;100259.66;;;9.83;100.00
47726;BME280;33483;48.294;16.388;2023-02-17T10:06:15;100269.47;;;9.95;100.00
47726;BME280;33483;48.294;16.388;2023-02-17T10:08:47;100261.16;;;9.95;100.00
47726;BME280;33483;48.294;16.388;2023-02-17T10:11:20;100258.66;;;9.92;100.00
47726;BME280;33483;48.294;16.388;2023-02-17T10:13:49;100267.47;;;9.79;100.00
47726;BME280;33483;48.294;16.388;2023-02-17T10:16:20;100254.41;;;9.74;100.00
47726;BME280;33483;48.294;16.388;2023-02-17T10:18:53;100243.84;;;9.67;100.00
47726;BME280;33483;48.294;16.388;2023-02-17T10:21:28;100232.50;;;9.60;100.00
47726;BME280;33483;48.294;16.388;2023-02-17T10:23:57;100242.06;;;9.64;100.00
47726;BME280;33483;48.294;16.388;2023-02-17T10:26:37;100218.63;;;9.76;100.00
47726;BME280;33483;48.294;16.388;2023-02-17T10:29:31;100211.81;;;9.94;100.00
47726;BME280;33483;48.294;16.388;2023-02-17T10:40:20;100197.69;;;10.71;100.00
47726;BME280;33483;48.294;16.388;2023-02-17T10:42:49;100206.16;;;10.90;100.00
47726;BME280;33483;48.294;16.388;2023-02-17T10:45:22;100206.84;;;11.01;100.00
47726;BME280;33483;48.294;16.388;2023-02-17T10:47:56;100215.13;;;11.07;100.00
47726;BME280;33483;48.294;16.388;2023-02-17T10:50:24;100196.38;;;11.18;100.00
47726;BME280;33483;48.294;16.388;2023-02-17T10:52:52;100195.81;;;11.25;100.00
47726;BME280;33483;48.294;16.388;2023-02-17T10:55:31;100201.88;;;11.24;100.00
47726;BME280;33483;48.294;16.388;2023-02-17T10:58:10;100190.28;;;11.25;100.00
47726;BME280;33483;48.294;16.388;2023-02-17T11:00:41;100191.75;;;11.26;100.00
47726;BME280;33483;48.294;16.388;2023-02-17T11:03:25;100196.75;;;11.33;100.00
47726;BME280;33483;48.294;16.388;2023-02-17T11:05:54;100193.53;;;11.29;100.00
47726;BME280;33483;48.294;16.388;2023-02-17T11:10:58;100170.97;;;11.38;100.00
47726;BME280;33483;48.294;16.388;2023-02-17T11:13:30;100167.63;;;11.46;96.07
47726;BME280;33483;48.294;16.388;2023-02-17T11:15:59;100164.28;;;11.53;97.80
47726;BME280;33483;48.294;16.388;2023-02-17T11:18:28;100156.38;;;11.62;96.00
47726;BME280;33483;48.294;16.388;2023-02-17T11:21:15;100166.97;;;11.64;94.71
47726;BME280;33483;48.294;16.388;2023-02-17T11:26:39;100141.66;;;11.73;86.33
47726;BME280;33483;48.294;16.388;2023-02-17T11:29:07;100173.59;;;11.85;87.90
47726;BME280;33483;48.294;16.388;2023-02-17T11:31:37;100159.44;;;11.88;85.03
47726;BME280;33483;48.294;16.388;2023-02-17T11:34:11;100159.13;;;11.92;82.84
47726;BME280;33483;48.294;16.388;2023-02-17T11:36:38;100171.75;;;11.93;81.97
47726;BME280;33483;48.294;16.388;2023-02-17T11:39:18;100155.53;;;11.97;81.73
47726;BME280;33483;48.294;16.388;2023-02-17T11:41:45;100166.66;;;11.97;82.83
47726;BME280;33483;48.294;16.388;2023-02-17T11:44:21;100158.78;;;12.01;82.57
47726;BME280;33483;48.294;16.388;2023-02-17T11:46:54;100172.69;;;12.01;83.08
47726;BME280;33483;48.294;16.388;2023-02-17T11:52:07;100144.13;;;12.00;83.27
47726;BME280;33483;48.294;16.388;2023-02-17T12:23:15;100128.03;;;12.55;87.74
47726;BME280;33483;48.294;16.388;2023-02-17T12:25:46;100128.38;;;12.64;87.17
47726;BME280;33483;48.294;16.388;2023-02-17T12:31:05;100138.00;;;12.63;86.60
47726;BME280;33483;48.294;16.388;2023-02-17T12:33:42;100129.13;;;12.65;89.08
47726;BME280;33483;48.294;16.388;2023-02-17T12:36:14;100124.78;;;12.69;88.25
47726;BME280;33483;48.294;16.388;2023-02-17T12:38:42;100127.78;;;12.71;88.89
47726;BME280;33483;48.294;16.388;2023-02-17T12:41:14;100120.34;;;12.61;90.23
47726;BME280;33483;48.294;16.388;2023-02-17T12:43:44;100115.63;;;12.56;91.14
47726;BME280;33483;48.294;16.388;2023-02-17T12:46:26;100130.72;;;12.41;94.32
47726;BME280;33483;48.294;16.388;2023-02-17T12:48:58;100110.72;;;12.43;95.83
47726;BME280;33483;48.294;16.388;2023-02-17T12:54:09;100103.16;;;12.43;97.50
47726;BME280;33483;48.294;16.388;2023-02-17T12:59:13;100089.31;;;12.38;100.00
47726;BME280;33483;48.294;16.388;2023-02-17T13:01:44;100095.28;;;12.29;100.00
47726;BME280;33483;48.294;16.388;2023-02-17T13:04:14;100088.50;;;12.24;100.00
47726;BME280;33483;48.294;16.388;2023-02-17T13:06:43;100082.88;;;12.30;100.00
47726;BME280;33483;48.294;16.388;2023-02-17T13:11:47;100092.94;;;12.33;100.00
47726;BME280;33483;48.294;16.388;2023-02-17T13:16:47;100084.53;;;12.38;100.00
47726;BME280;33483;48.294;16.388;2023-02-17T13:19:15;100095.41;;;12.36;100.00
47726;BME280;33483;48.294;16.388;2023-02-17T13:21:54;100081.50;;;12.36;100.00
47726;BME280;33483;48.294;16.388;2023-02-17T13:24:32;100073.09;;;12.42;100.00
47726;BME280;33483;48.294;16.388;2023-02-17T13:29:46;100066.25;;;12.43;100.00
47726;BME280;33483;48.294;16.388;2023-02-17T13:32:13;100071.63;;;12.41;99.78
47726;BME280;33483;48.294;16.388;2023-02-17T13:34:43;100073.56;;;12.46;100.00
47726;BME280;33483;48.294;16.388;2023-02-17T13:39:42;100072.94;;;12.34;100.00
47726;BME280;33483;48.294;16.388;2023-02-17T13:44:55;100059.16;;;12.29;100.00
47726;BME280;33483;48.294;16.388;2023-02-17T13:47:26;100054.56;;;12.31;100.00
47726;BME280;33483;48.294;16.388;2023-02-17T13:49:55;100064.91;;;12.31;100.00
47726;BME280;33483;48.294;16.388;2023-02-17T13:52:24;100041.13;;;12.35;100.00
47726;BME280;33483;48.294;16.388;2023-02-17T13:55:02;100045.84;;;12.40;99.91
47726;BME280;33483;48.294;16.388;2023-02-17T13:57:34;100049.06;;;12.44;100.00
47726;BME280;33483;48.294;16.388;2023-02-17T14:02:51;100062.44;;;12.46;100.00
47726;BME280;33483;48.294;16.388;2023-02-17T14:05:25;100030.34;;;12.45;100.00
47726;BME280;33483;48.294;16.388;2023-02-17T14:07:56;100034.72;;;12.40;100.00
47726;BME280;33483;48.294;16.388;2023-02-17T14:10:24;100016.97;;;12.43;100.00
47726;BME280;33483;48.294;16.388;2023-02-17T14:12:52;100019.00;;;12.43;100.00
47726;BME280;33483;48.294;16.388;2023-02-17T14:15:21;100015.78;;;12.39;100.00
47726;BME280;33483;48.294;16.388;2023-02-17T14:17:49;100023.59;;;12.40;100.00
47726;BME280;33483;48.294;16.388;2023-02-17T14:23:11;100011.94;;;12.42;100.00
47726;BME280;33483;48.294;16.388;2023-02-17T14:25:39;100009.84;;;12.48;100.00
47726;BME280;33483;48.294;16.388;2023-02-17T14:28:21;100007.78;;;12.48;100.00
47726;BME280;33483;48.294;16.388;2023-02-17T14:30:48;100000.53;;;12.45;100.00
47726;BME280;33483;48.294;16.388;2023-02-17T14:33:18;100004.59;;;12.44;100.00
47726;BME280;33483;48.294;16.388;2023-02-17T14:35:50;100004.28;;;12.48;100.00